Bookmark and Share
Track history (hours):
 

Frej

Last reported at 2014-Apr-24 07:00 UTC. Time now 2014-Apr-24 09:23 UTC.
Position N 65°36' E 022°12'.

Length 108 m; draft 7 m.

Type: Other ship. MMSI: 265068000.

Wind from 270 at 6 knots

Barometer 1029.3 mb
Air temperature 6.6 ° C
Water temperature 1.4 ° C

NotesDate/timePositionNaut miles runAvg speedWind from/ knotsBaromVisibWave heightAir tempDewpointWater temp
2014-Apr-24 07:00N 65°36' E 022°12'0 0.0 270 / 61029.3 6.6 1.4
2014-Apr-24 06:00N 65°36' E 022°12'10 9.6 220 / 121029.6 2.7 1.3
2014-Apr-24 05:00N 65°30' E 022°30'1211.6 250 / 211030.1 2.3 1.8
2014-Apr-24 04:00N 65°24' E 022°54'2 2.5 240 / 171030.6 2.5 0.8
2014-Apr-24 03:00N 65°24' E 023°00'2 2.5 250 / 191031.6 1.7 0.8
2014-Apr-24 02:00N 65°24' E 022°54'6 6.0 240 / 161032.3 1.5 1.1
2014-Apr-24 01:00N 65°18' E 022°54'5 1.7 240 / 141032.6 1.3 1.1
2014-Apr-23 22:00N 65°18' E 023°06'1313.0 240 / 191033.5 1.5 0.8
2014-Apr-23 21:00N 65°30' E 023°18'2 1.2 240 / 191033.4 1.5 0.5
2014-Apr-23 19:00N 65°30' E 023°24'0 0.0 240 / 211034.2 0.7 0.6
2014-Apr-23 18:00N 65°30' E 023°24'2 2.5 240 / 171034.2 1.1 0.8
2014-Apr-23 17:00N 65°30' E 023°18'0 0.0 250 / 171034.1 1.1 0.7
2014-Apr-23 15:00N 65°30' E 023°18'0 0.0 240 / 161034.5 1.6 0.8
2014-Apr-23 13:00N 65°30' E 023°18'10 9.6 230 / 121034.7 2.1 0.6
2014-Apr-23 12:00N 65°24' E 023°00'7 7.5 250 / 61035.1 1.9 1.0
2014-Apr-23 11:00N 65°24' E 022°42'1211.6 150 / 61035.1 2.1 1.8
2014-Apr-23 10:00N 65°30' E 022°18'27 6.8 030 / 81035.0 4.1 1.4
2014-Apr-23 06:00N 65°30' E 023°24'0 0.0 320 / 141033.0 -0.3 0.3
2014-Apr-23 05:00N 65°30' E 023°24'6 3.0 330 / 171032.5 -0.8 0.3
2014-Apr-23 03:00N 65°24' E 023°24'0 0.0 320 / 171030.9 -1.0 0.6
2014-Apr-23 01:00N 65°24' E 023°24'6 6.0 320 / 161029.5 -0.5 0.6
2014-Apr-23 00:00N 65°30' E 023°24'0 0.0 320 / 191028.4 -0.1 0.6
2014-Apr-22 23:00N 65°30' E 023°24'0 0.0 310 / 141027.6 0.2 0.8
2014-Apr-22 22:00N 65°30' E 023°24'0 0.0 330 / 161026.9 1.2 0.7
2014-Apr-22 21:00N 65°30' E 023°24'0 0.0 330 / 121026.3 1.1 0.7
2014-Apr-22 19:00N 65°30' E 023°24'6 6.0 310 / 171025.0 2.5 0.4
2014-Apr-22 18:00N 65°36' E 023°24'6 3.0 330 / 211024.1 3.5 0.4
2014-Apr-22 16:00N 65°30' E 023°24'6 3.0 320 / 171023.2 3.3 0.6
2014-Apr-22 14:00N 65°36' E 023°24'0 0.0 340 / 191022.4 4.3 0.4
2014-Apr-22 13:00N 65°36' E 023°24'2110.6 330 / 251021.9 4.4 0.4
2014-Apr-22 11:00N 65°24' E 022°42'10 9.6 340 / 171021.4 5.1 1.9
2014-Apr-22 10:00N 65°30' E 022°24'8 1.9 320 / 191021.1 5.8 1.4
2014-Apr-22 06:00N 65°36' E 022°12'0 0.0 310 / 211018.0 5.9 1.3
2014-Apr-22 05:00N 65°36' E 022°12'0 0.0 300 / 161017.6 5.3 1.3
2014-Apr-22 03:00N 65°36' E 022°12'0 0.0 300 / 141016.9 3.2 1.3
2014-Apr-22 02:00N 65°36' E 022°12'0 0.0 290 / 81017.1 3.4 1.4
2014-Apr-22 01:00N 65°36' E 022°12'0 0.0 280 / 101017.2 4.2 1.5
2014-Apr-22 00:00N 65°36' E 022°12'0 0.0 270 / 121017.3 4.8 1.5
2014-Apr-21 23:00N 65°36' E 022°12'0 0.0 290 / 101017.4 5.3 1.5
2014-Apr-21 22:00N 65°36' E 022°12'0 0.0 280 / 81017.4 5.8 1.5
2014-Apr-21 21:00N 65°36' E 022°12'0 0.0 280 / 121017.2 6.2 1.5
2014-Apr-21 20:00N 65°36' E 022°12'0 0.0 300 / 121017.3 6.9 1.5
2014-Apr-21 19:00N 65°36' E 022°12'0 0.0 270 / 101017.2 8.5 1.5
2014-Apr-21 18:00N 65°36' E 022°12'0 0.0 280 / 121017.2 7.8 1.6
2014-Apr-21 17:00N 65°36' E 022°12'0 0.0 310 / 141017.1 10.5 1.5
2014-Apr-21 16:00N 65°36' E 022°12'0 0.0 300 / 161016.9 11.1 1.5
2014-Apr-21 15:00N 65°36' E 022°12'0 0.0 120 / 41017.1 8.6 1.5
2014-Apr-21 14:00N 65°36' E 022°12'0 0.0 170 / 121017.6 4.8 1.4
2014-Apr-21 13:00N 65°36' E 022°12'0 0.0 170 / 141018.1 4.2 1.4
2014-Apr-21 12:00N 65°36' E 022°12'0 0.0 170 / 121018.4 4.0 1.3
2014-Apr-21 11:00N 65°36' E 022°12'0 0.0 180 / 101019.1 3.6 1.3
2014-Apr-21 10:00N 65°36' E 022°12'0 0.0 190 / 171019.4 3.5 1.3
2014-Apr-21 09:00N 65°36' E 022°12'0 0.0 180 / 141020.5 3.8 1.3
2014-Apr-21 07:00N 65°36' E 022°12'0 0.0 160 / 61021.4 3.2 1.3
2014-Apr-21 06:00N 65°36' E 022°12'0 0.0 160 / 81022.0 2.3 1.3
2014-Apr-21 05:00N 65°36' E 022°12'0 0.0 130 / 21022.6 1.9 1.3
2014-Apr-21 04:00N 65°36' E 022°12'0 0.0 150 / 21023.2 2.3 1.4
2014-Apr-21 02:00N 65°36' E 022°12'0 0.0 170 / 21024.3 2.5 1.3
2014-Apr-21 01:00N 65°36' E 022°12'0 0.0 210 / 21025.2 2.3 1.4
2014-Apr-21 00:00N 65°36' E 022°12'0 0.0 210 / 21025.9 2.2 1.3
2014-Apr-20 23:00N 65°36' E 022°12'0 0.0 190 / 21026.4 2.2 1.4
2014-Apr-20 22:00N 65°36' E 022°12'0 0.0 130 / 41026.8 4.1 1.3
2014-Apr-20 21:00N 65°36' E 022°12'0 0.0 090 1027.0 4.5 1.4
2014-Apr-20 20:00N 65°36' E 022°12'0 0.0 270 / 21027.5 4.4 1.4
2014-Apr-20 19:00N 65°36' E 022°12'0 0.0 190 / 21027.7 4.2 1.4
2014-Apr-20 18:00N 65°36' E 022°12'0 0.0 180 / 41028.0 4.2 1.4
2014-Apr-20 17:00N 65°36' E 022°12'0 0.0 190 / 61028.2 4.6 1.4
2014-Apr-20 16:00N 65°36' E 022°12'0 0.0 170 / 101028.4 5.3 1.4
2014-Apr-20 15:00N 65°36' E 022°12'0 0.0 180 / 121028.6 6.6 1.4
2014-Apr-20 14:00N 65°36' E 022°12'0 0.0 180 / 121028.7 7.2 1.4
2014-Apr-20 13:00N 65°36' E 022°12'0 0.0 180 / 121029.2 7.1 1.4
2014-Apr-20 12:00N 65°36' E 022°12'0 0.0 160 / 61028.9 7.4 1.3
2014-Apr-20 11:00N 65°36' E 022°12'0 0.0 180 / 101028.8 8.0 1.3
2014-Apr-20 10:00N 65°36' E 022°12'0 0.0 280 / 61028.6 10.1 1.3
2014-Apr-19 22:00N 65°36' E 022°12'0 0.0 300 / 161018.0 8.1 1.3
2014-Apr-19 21:00N 65°36' E 022°12'0 0.0 270 / 141016.6 8.9 1.3
2014-Apr-19 20:00N 65°36' E 022°12'0 0.0 250 / 61015.8 9.8 1.3
2014-Apr-19 19:00N 65°36' E 022°12'0 0.0 260 / 161015.2 10.6 1.3
2014-Apr-19 18:00N 65°36' E 022°12'0 0.0 250 / 101014.5 11.8 1.3
2014-Apr-19 17:00N 65°36' E 022°12'0 0.0 270 / 161013.9 12.5 1.3
2014-Apr-19 16:00N 65°36' E 022°12'0 0.0 270 / 211013.9 12.7 1.2
2014-Apr-19 15:00N 65°36' E 022°12'0 0.0 270 / 171014.4 13.0 1.3
2014-Apr-19 13:00N 65°36' E 022°12'0 0.0 260 / 171013.5 13.5 1.3
2014-Apr-19 12:00N 65°36' E 022°12'0 0.0 250 / 161013.7 12.9 1.3
2014-Apr-19 08:00N 65°36' E 022°12'0 0.0 200 / 161013.3 4.1 1.2
2014-Apr-19 07:00N 65°36' E 022°12'0 0.0 200 / 121013.7 3.8 1.2
2014-Apr-19 06:00N 65°36' E 022°12'0 0.0 190 / 121013.4 4.1 1.1
2014-Apr-19 05:00N 65°36' E 022°12'0 0.0 210 / 141013.2 4.4 1.2
2014-Apr-19 04:00N 65°36' E 022°12'0 0.0 210 / 121012.8 3.5 1.2
2014-Apr-19 03:00N 65°36' E 022°12'0 0.0 200 / 141013.0 3.2 1.2
2014-Apr-19 02:00N 65°36' E 022°12'0 0.0 210 / 141013.6 3.4 1.2
2014-Apr-19 01:00N 65°36' E 022°12'0 0.0 200 / 161013.6 4.2 1.2
2014-Apr-19 00:00N 65°36' E 022°12'0 0.0 230 / 101014.4 3.6 1.2
2014-Apr-18 23:00N 65°36' E 022°12'0 0.0 210 / 121014.5 3.4 1.2
2014-Apr-18 22:00N 65°36' E 022°12'0 0.0 200 / 141014.5 2.4 1.2
2014-Apr-18 20:00N 65°36' E 022°12'0 0.0 180 / 101015.5 1.9 1.3
2014-Apr-18 19:00N 65°36' E 022°12'0 0.0 180 / 81015.6 2.1 1.3
2014-Apr-18 18:00N 65°36' E 022°12'0 0.0 190 / 101015.4 3.3 1.2
2014-Apr-18 17:00N 65°36' E 022°12'10 9.6 220 / 101014.9 4.5 1.0
2014-Apr-18 16:00N 65°30' E 022°30'1414.1 220 / 141014.8 4.2 1.6
2014-Apr-18 15:00N 65°18' E 022°48'2311.7 210 / 161014.2 3.4 1.1
2014-Apr-18 13:00N 65°36' E 023°24'2 1.2 240 / 81012.3 3.7 0.4
2014-Apr-18 11:00N 65°36' E 023°30'6 6.5 340 / 61011.1 5.4 0.4
2014-Apr-18 10:00N 65°30' E 023°24'0 0.0 330 / 161010.1 3.1 0.3
2014-Apr-18 09:00N 65°30' E 023°24'0 0.0 340 / 101008.7 2.5 0.5
2014-Apr-18 07:00N 65°30' E 023°24'0 0.0 340 / 161005.9 1.1 0.6
2014-Apr-18 06:00N 65°30' E 023°24'0 0.0 340 / 121004.1 1.1 0.5
2014-Apr-18 05:00N 65°30' E 023°24'0 0.0 350 / 161002.5 1.2 0.6
2014-Apr-18 04:00N 65°30' E 023°24'0 0.0 280 / 161001.0 1.3 0.5
2014-Apr-17 14:00N 65°30' E 023°24'0 0.0 180 / 23999.6 3.0 0.5
2014-Apr-17 13:00N 65°30' E 023°24'6 6.0 190 / 231000.4 2.6 0.4
2014-Apr-17 12:00N 65°24' E 023°24'0 0.0 190 / 231001.2 3.7 0.5
2014-Apr-17 11:00N 65°24' E 023°24'0 0.0 200 / 271002.0 2.5 0.5
2014-Apr-17 10:00N 65°24' E 023°24'6 6.0 200 / 251002.5 1.6 0.3
2014-Apr-17 09:00N 65°30' E 023°24'1212.3 210 / 251002.6 1.4 0.4
2014-Apr-17 08:00N 65°42' E 023°30'6 6.0 210 / 191002.9 1.0 0.5
2014-Apr-17 07:00N 65°36' E 023°30'8 7.8 200 / 171003.6 2.1 0.3
2014-Apr-17 06:00N 65°30' E 023°18'1211.6 210 / 231004.7 1.2 0.3
2014-Apr-17 05:00N 65°24' E 023°42'7 7.5 200 / 271005.3 1.1 0.3
2014-Apr-17 04:00N 65°24' E 024°00'0 0.0 210 / 271006.2 1.2 0.2
2014-Apr-17 03:00N 65°24' E 024°00'5 2.5 220 / 231006.4 1.1 0.3
2014-Apr-17 01:00N 65°24' E 023°48'0 0.0 210 / 251007.0 1.0 0.6
2014-Apr-17 00:00N 65°24' E 023°48'0 0.0 210 / 191007.8 1.1 0.7
2014-Apr-16 23:00N 65°24' E 023°48'0 0.0 220 / 231008.5 1.2 0.8
2014-Apr-16 22:00N 65°24' E 023°48'2 1.2 220 / 251009.2 1.2 0.8
2014-Apr-16 20:00N 65°24' E 023°42'6 6.0 220 / 251011.3 1.3 0.6
2014-Apr-16 19:00N 65°18' E 023°42'21 7.0 220 / 231011.4 1.5 0.3
2014-Apr-16 16:00N 65°24' E 022°54'1211.6 210 / 191013.7 2.0 1.1
2014-Apr-16 15:00N 65°30' E 022°30'10 9.6 200 / 231013.2 2.9 1.2
2014-Apr-16 14:00N 65°36' E 022°12'0 0.0 190 / 161013.8 3.2 0.9
2014-Apr-16 13:00N 65°36' E 022°12'0 0.0 170 / 121015.3 2.2 1.2
2014-Apr-16 12:00N 65°36' E 022°12'0 0.0 190 / 191016.1 1.9 1.2
2014-Apr-16 10:00N 65°36' E 022°12'0 0.0 190 / 161017.6 1.7 1.2
2014-Apr-16 09:00N 65°36' E 022°12'0 0.0 190 / 161018.3 1.5 1.2
2014-Apr-16 08:00N 65°36' E 022°12'0 0.0 190 / 121018.7 1.5 1.2
2014-Apr-16 07:00N 65°36' E 022°12'0 0.0 170 / 61019.2 1.2 1.1
2014-Apr-16 06:00N 65°36' E 022°12'0 0.0 160 / 21019.8 2.6 1.1
2014-Apr-16 03:00N 65°36' E 022°12'0 0.0 300 / 21019.9 -2.6 1.2
2014-Apr-16 02:00N 65°36' E 022°12'0 0.0 330 / 61019.8 -1.2 1.2
2014-Apr-16 01:00N 65°36' E 022°12'0 0.0 320 / 61019.8 -1.0 1.2
2014-Apr-16 00:00N 65°36' E 022°12'0 0.0 310 / 101019.6 -0.2 1.1
2014-Apr-15 23:00N 65°36' E 022°12'0 0.0 320 / 61019.4 0.5 1.2
2014-Apr-15 22:00N 65°36' E 022°12'0 0.0 310 / 101019.1 0.8 1.1
2014-Apr-15 21:00N 65°36' E 022°12'0 0.0 320 / 101018.6 1.6 1.2
2014-Apr-15 19:00N 65°36' E 022°12'0 0.0 320 / 81017.3 3.2 1.2
2014-Apr-15 18:00N 65°36' E 022°12'0 0.0 320 / 101016.7 4.2 1.2
2014-Apr-15 17:00N 65°36' E 022°12'0 0.0 330 / 141015.9 4.8 1.2
2014-Apr-15 16:00N 65°36' E 022°12'0 0.0 320 / 161015.1 5.3 1.2
2014-Apr-15 15:00N 65°36' E 022°12'0 0.0 330 / 251014.7 5.4 1.2
2014-Apr-15 14:00N 65°36' E 022°12'0 0.0 330 / 191013.7 6.5 1.2
2014-Apr-15 13:00N 65°36' E 022°12'0 0.0 300 / 211013.0 5.3 1.1
2014-Apr-15 12:00N 65°36' E 022°12'0 0.0 310 / 161012.3 5.7 1.1
2014-Apr-15 11:00N 65°36' E 022°12'0 0.0 310 / 211011.6 5.8 1.1
2014-Apr-15 10:00N 65°36' E 022°12'0 0.0 320 / 171011.1 5.5 1.1
2014-Apr-15 09:00N 65°36' E 022°12'0 0.0 330 / 171010.6 4.0 1.1
2014-Apr-15 08:00N 65°36' E 022°12'0 0.0 330 / 191009.9 3.4 1.1
2014-Apr-15 07:00N 65°36' E 022°12'0 0.0 320 / 251009.1 2.7 1.0
2014-Apr-15 06:00N 65°36' E 022°12'0 0.0 330 / 121008.6 2.0 0.9
2014-Apr-15 05:00N 65°36' E 022°12'0 0.0 320 / 121007.8 1.5 1.0
2014-Apr-15 04:00N 65°36' E 022°12'0 0.0 330 / 121006.4 1.6 1.0
2014-Apr-15 03:00N 65°36' E 022°12'0 0.0 340 / 121005.4 2.0 1.0
2014-Apr-15 02:00N 65°36' E 022°12'0 0.0 340 / 171004.2 2.1 1.0
2014-Apr-15 01:00N 65°36' E 022°12'0 0.0 350 / 141003.5 1.6 1.0
2014-Apr-14 23:00N 65°36' E 022°12'0 0.0 350 / 141000.9 3.9 1.0
2014-Apr-14 22:00N 65°36' E 022°12'0 0.0 360 / 8999.4 3.2 1.1
2014-Apr-14 21:00N 65°36' E 022°12'0 0.0 350 / 6998.4 4.1 1.1
2014-Apr-14 20:00N 65°36' E 022°12'0 0.0 300 / 2997.8 2.6 1.1
2014-Apr-14 19:00N 65°36' E 022°12'0 0.0 100 997.1 3.8 1.1
2014-Apr-14 18:00N 65°36' E 022°12'0 0.0 020 996.7 5.6 1.1
2014-Apr-14 17:00N 65°36' E 022°12'0 0.0 020 / 4995.9 6.8 1.1
2014-Apr-14 16:00N 65°36' E 022°12'0 0.0 320 / 4995.4 6.3 1.0
2014-Apr-14 15:00N 65°36' E 022°12'0 0.0 310 / 8994.9 7.2 1.1
2014-Apr-14 14:00N 65°36' E 022°12'0 0.0 360 / 12994.1 5.7 1.0
2014-Apr-14 13:00N 65°36' E 022°12'0 0.0 993.5 5.3 1.1
2014-Apr-14 11:00N 65°36' E 022°12'0 0.0 360 / 6992.1 4.1 1.0
2014-Apr-14 10:00N 65°36' E 022°12'0 0.0 010 / 8991.4 3.2 1.1
2014-Apr-14 08:00N 65°36' E 022°12'0 0.0 010 / 6989.7 1.4 1.1
2014-Apr-14 07:00N 65°36' E 022°12'   350 / 6988.8 0.7 1.1

Dump ship's entire track history

sailing weather and tide predictions

Frej — SBPT — position and weather